sensor_id;sensor_type;location;lat;lon;timestamp;pressure;altitude;pressure_sealevel;temperature;humidity
55994;BME280;67425;52.126;20.638;2023-04-10T00:00:59;57310.75;;;-144.78;46.88
55994;BME280;67425;52.126;20.638;2023-04-10T00:03:24;57300.38;;;-144.78;46.94
55994;BME280;67425;52.126;20.638;2023-04-10T00:05:50;57327.34;;;-144.78;47.40
55994;BME280;67425;52.126;20.638;2023-04-10T00:08:15;57335.66;;;-144.78;47.92
55994;BME280;67425;52.126;20.638;2023-04-10T00:10:41;57350.19;;;-144.78;48.04
55994;BME280;67425;52.126;20.638;2023-04-10T00:13:06;57333.59;;;-144.78;47.22
55994;BME280;67425;52.126;20.638;2023-04-10T00:15:31;57339.81;;;-144.78;47.08
55994;BME280;67425;52.126;20.638;2023-04-10T00:17:56;57329.44;;;-144.78;47.78
55994;BME280;67425;52.126;20.638;2023-04-10T00:20:22;57335.66;;;-144.78;47.48
55994;BME280;67425;52.126;20.638;2023-04-10T00:22:48;57327.34;;;-144.78;47.40
55994;BME280;67425;52.126;20.638;2023-04-10T00:25:14;57339.81;;;-144.78;47.62
55994;BME280;67425;52.126;20.638;2023-04-10T00:27:39;57346.06;;;-144.78;48.13
55994;BME280;67425;52.126;20.638;2023-04-10T00:30:05;57348.13;;;-144.78;48.23
55994;BME280;67425;52.126;20.638;2023-04-10T00:32:31;57316.97;;;-144.78;46.45
55994;BME280;67425;52.126;20.638;2023-04-10T00:34:56;57360.59;;;-144.78;46.56
55994;BME280;67425;52.126;20.638;2023-04-10T00:37:22;57325.28;;;-144.78;46.71
55994;BME280;67425;52.126;20.638;2023-04-10T00:39:47;57323.22;;;-144.78;46.02
55994;BME280;67425;52.126;20.638;2023-04-10T00:42:12;57335.66;;;-144.78;46.28
55994;BME280;67425;52.126;20.638;2023-04-10T00:44:38;57339.81;;;-144.78;46.13
55994;BME280;67425;52.126;20.638;2023-04-10T00:47:04;57339.81;;;-144.78;46.42
55994;BME280;67425;52.126;20.638;2023-04-10T00:49:30;57348.13;;;-144.78;46.81
55994;BME280;67425;52.126;20.638;2023-04-10T00:51:55;57368.91;;;-144.78;47.80
55994;BME280;67425;52.126;20.638;2023-04-10T00:54:22;57360.59;;;-144.78;47.75
55994;BME280;67425;52.126;20.638;2023-04-10T00:56:48;57354.34;;;-144.78;47.20
55994;BME280;67425;52.126;20.638;2023-04-10T00:59:14;57375.13;;;-144.78;47.39
55994;BME280;67425;52.126;20.638;2023-04-10T01:01:39;57383.44;;;-144.78;48.45
55994;BME280;67425;52.126;20.638;2023-04-10T01:04:05;57370.97;;;-144.78;48.50
55994;BME280;67425;52.126;20.638;2023-04-10T01:09:16;57354.34;;;-144.78;47.58
55994;BME280;67425;52.126;20.638;2023-04-10T01:17:00;57346.06;;;-144.78;46.05
55994;BME280;67425;52.126;20.638;2023-04-10T01:22:48;57352.28;;;-144.78;48.13
55994;BME280;67425;52.126;20.638;2023-04-10T01:25:29;57377.19;;;-144.78;48.37
55994;BME280;67425;52.126;20.638;2023-04-10T01:31:01;57375.13;;;-144.78;48.18
55994;BME280;67425;52.126;20.638;2023-04-10T01:33:33;57373.06;;;-144.78;48.18
55994;BME280;67425;52.126;20.638;2023-04-10T01:36:02;57391.75;;;-144.78;48.26
55994;BME280;67425;52.126;20.638;2023-04-10T01:38:29;57381.34;;;-144.78;47.43
55994;BME280;67425;52.126;20.638;2023-04-10T01:40:56;57366.81;;;-144.78;47.69
55994;BME280;67425;52.126;20.638;2023-04-10T01:43:24;57364.75;;;-144.78;47.29
55994;BME280;67425;52.126;20.638;2023-04-10T01:45:50;57348.13;;;-144.78;47.72
55994;BME280;67425;52.126;20.638;2023-04-10T01:48:16;57373.06;;;-144.78;49.95
55994;BME280;67425;52.126;20.638;2023-04-10T01:50:44;57379.28;;;-144.78;49.13
55994;BME280;67425;52.126;20.638;2023-04-10T01:53:11;57350.19;;;-144.78;48.41
55994;BME280;67425;52.126;20.638;2023-04-10T01:55:37;57360.59;;;-144.78;47.87
55994;BME280;67425;52.126;20.638;2023-04-10T01:58:03;57385.50;;;-144.78;50.08
55994;BME280;67425;52.126;20.638;2023-04-10T02:00:38;57400.03;;;-144.78;51.34
55994;BME280;67425;52.126;20.638;2023-04-10T02:03:05;57368.91;;;-144.78;49.71
55994;BME280;67425;52.126;20.638;2023-04-10T02:08:30;57360.59;;;-144.78;48.15
55994;BME280;67425;52.126;20.638;2023-04-10T02:11:12;57370.97;;;-144.78;48.21
55994;BME280;67425;52.126;20.638;2023-04-10T02:13:40;57375.13;;;-144.78;47.71
55994;BME280;67425;52.126;20.638;2023-04-10T02:16:06;57341.91;;;-144.78;47.67
55994;BME280;67425;52.126;20.638;2023-04-10T02:18:33;57375.13;;;-144.78;49.25
55994;BME280;67425;52.126;20.638;2023-04-10T02:21:00;57393.81;;;-144.78;49.65
55994;BME280;67425;52.126;20.638;2023-04-10T02:23:26;57377.19;;;-144.78;50.17
55994;BME280;67425;52.126;20.638;2023-04-10T02:25:52;57364.75;;;-144.78;49.53
55994;BME280;67425;52.126;20.638;2023-04-10T02:28:17;57360.59;;;-144.78;48.66
55994;BME280;67425;52.126;20.638;2023-04-10T02:30:43;57370.97;;;-144.78;49.28
55994;BME280;67425;52.126;20.638;2023-04-10T02:33:08;57354.34;;;-144.78;48.88
55994;BME280;67425;52.126;20.638;2023-04-10T02:35:33;57385.50;;;-144.78;48.43
55994;BME280;67425;52.126;20.638;2023-04-10T02:37:59;57358.50;;;-144.78;48.87
55994;BME280;67425;52.126;20.638;2023-04-10T02:40:25;57346.06;;;-144.78;47.72
55994;BME280;67425;52.126;20.638;2023-04-10T02:42:50;57375.13;;;-144.78;48.41
55994;BME280;67425;52.126;20.638;2023-04-10T02:45:16;57393.81;;;-144.78;48.53
55994;BME280;67425;52.126;20.638;2023-04-10T02:47:41;57364.75;;;-144.78;48.53
55994;BME280;67425;52.126;20.638;2023-04-10T02:50:07;57402.13;;;-144.78;48.22
55994;BME280;67425;52.126;20.638;2023-04-10T02:52:33;57370.97;;;-144.78;48.16
55994;BME280;67425;52.126;20.638;2023-04-10T02:54:58;57370.97;;;-144.78;48.01
55994;BME280;67425;52.126;20.638;2023-04-10T02:57:23;57362.66;;;-144.78;49.00
55994;BME280;67425;52.126;20.638;2023-04-10T02:59:49;57389.66;;;-144.78;48.69
55994;BME280;67425;52.126;20.638;2023-04-10T03:02:15;57383.44;;;-144.78;48.96
55994;BME280;67425;52.126;20.638;2023-04-10T03:04:41;57389.66;;;-144.78;48.68
55994;BME280;67425;52.126;20.638;2023-04-10T03:07:07;57373.06;;;-144.78;48.17
55994;BME280;67425;52.126;20.638;2023-04-10T03:09:32;57379.28;;;-144.78;47.79
55994;BME280;67425;52.126;20.638;2023-04-10T03:11:57;57370.97;;;-144.78;46.88
55994;BME280;67425;52.126;20.638;2023-04-10T03:14:23;57370.97;;;-144.78;47.97
55994;BME280;67425;52.126;20.638;2023-04-10T03:16:48;57383.44;;;-144.78;48.02
55994;BME280;67425;52.126;20.638;2023-04-10T03:19:14;57387.59;;;-144.78;48.82
55994;BME280;67425;52.126;20.638;2023-04-10T03:21:40;57414.59;;;-144.78;50.20
55994;BME280;67425;52.126;20.638;2023-04-10T03:24:06;57427.03;;;-144.78;49.77
55994;BME280;67425;52.126;20.638;2023-04-10T03:26:31;57375.13;;;-144.78;48.47
55994;BME280;67425;52.126;20.638;2023-04-10T03:28:57;57379.28;;;-144.78;48.27
55994;BME280;67425;52.126;20.638;2023-04-10T03:31:22;57389.66;;;-144.78;48.73
55994;BME280;67425;52.126;20.638;2023-04-10T03:33:48;57379.28;;;-144.78;48.06
55994;BME280;67425;52.126;20.638;2023-04-10T03:36:13;57370.97;;;-144.78;47.92
55994;BME280;67425;52.126;20.638;2023-04-10T03:38:38;57377.19;;;-144.78;48.37
55994;BME280;67425;52.126;20.638;2023-04-10T03:41:04;57368.91;;;-144.78;48.17
55994;BME280;67425;52.126;20.638;2023-04-10T03:43:29;57402.13;;;-144.78;48.26
55994;BME280;67425;52.126;20.638;2023-04-10T03:45:55;57387.59;;;-144.78;48.15
55994;BME280;67425;52.126;20.638;2023-04-10T03:48:20;57397.97;;;-144.78;49.00
55994;BME280;67425;52.126;20.638;2023-04-10T03:50:46;57383.44;;;-144.78;49.19
55994;BME280;67425;52.126;20.638;2023-04-10T03:53:11;57391.75;;;-144.78;49.55
55994;BME280;67425;52.126;20.638;2023-04-10T03:55:36;57408.34;;;-144.78;49.22
55994;BME280;67425;52.126;20.638;2023-04-10T03:58:03;57412.50;;;-144.78;50.23
55994;BME280;67425;52.126;20.638;2023-04-10T04:00:28;57431.19;;;-144.78;50.70
55994;BME280;67425;52.126;20.638;2023-04-10T04:02:53;57387.59;;;-144.78;50.31
55994;BME280;67425;52.126;20.638;2023-04-10T04:05:19;57402.13;;;-144.78;49.85
55994;BME280;67425;52.126;20.638;2023-04-10T04:07:45;57377.19;;;-144.78;49.88
55994;BME280;67425;52.126;20.638;2023-04-10T04:10:10;57393.81;;;-144.78;48.99
55994;BME280;67425;52.126;20.638;2023-04-10T04:12:36;57385.50;;;-144.78;48.49
55994;BME280;67425;52.126;20.638;2023-04-10T04:15:01;57404.19;;;-144.78;49.77
55994;BME280;67425;52.126;20.638;2023-04-10T04:17:27;57397.97;;;-144.78;48.18
55994;BME280;67425;52.126;20.638;2023-04-10T04:19:52;57393.81;;;-144.78;48.11
55994;BME280;67425;52.126;20.638;2023-04-10T04:22:18;57402.13;;;-144.78;49.72
55994;BME280;67425;52.126;20.638;2023-04-10T04:24:44;57393.81;;;-144.78;48.98
55994;BME280;67425;52.126;20.638;2023-04-10T04:27:09;57427.03;;;-144.78;50.34
55994;BME280;67425;52.126;20.638;2023-04-10T04:29:34;57412.50;;;-144.78;49.98
55994;BME280;67425;52.126;20.638;2023-04-10T04:32:00;57410.44;;;-144.78;49.77
55994;BME280;67425;52.126;20.638;2023-04-10T04:34:25;57408.34;;;-144.78;50.60
55994;BME280;67425;52.126;20.638;2023-04-10T04:36:50;57404.19;;;-144.78;50.76
55994;BME280;67425;52.126;20.638;2023-04-10T04:39:16;57412.50;;;-144.78;50.17
55994;BME280;67425;52.126;20.638;2023-04-10T04:41:41;57377.19;;;-144.78;49.94
55994;BME280;67425;52.126;20.638;2023-04-10T04:44:06;57387.59;;;-144.78;49.59
55994;BME280;67425;52.126;20.638;2023-04-10T04:46:32;57373.06;;;-144.78;49.15
55994;BME280;67425;52.126;20.638;2023-04-10T04:48:57;57364.75;;;-144.78;48.97
55994;BME280;67425;52.126;20.638;2023-04-10T04:51:22;57383.44;;;-144.78;49.92
55994;BME280;67425;52.126;20.638;2023-04-10T04:53:48;57385.50;;;-144.78;51.15
55994;BME280;67425;52.126;20.638;2023-04-10T04:56:13;57373.06;;;-144.78;50.75
55994;BME280;67425;52.126;20.638;2023-04-10T04:58:39;57391.75;;;-144.78;50.65
55994;BME280;67425;52.126;20.638;2023-04-10T05:01:04;57368.91;;;-144.78;50.30
55994;BME280;67425;52.126;20.638;2023-04-10T05:03:30;57370.97;;;-144.78;50.68
55994;BME280;67425;52.126;20.638;2023-04-10T05:05:56;57358.50;;;-144.78;50.57
55994;BME280;67425;52.126;20.638;2023-04-10T05:08:21;57346.06;;;-144.78;50.17
55994;BME280;67425;52.126;20.638;2023-04-10T05:10:47;57348.13;;;-144.78;51.19
55994;BME280;67425;52.126;20.638;2023-04-10T05:13:12;57354.34;;;-144.78;50.66
55994;BME280;67425;52.126;20.638;2023-04-10T05:15:38;57352.28;;;-144.78;50.11
55994;BME280;67425;52.126;20.638;2023-04-10T05:18:03;57341.91;;;-144.78;50.44
55994;BME280;67425;52.126;20.638;2023-04-10T05:20:29;57354.34;;;-144.78;51.49
55994;BME280;67425;52.126;20.638;2023-04-10T05:22:55;57362.66;;;-144.78;49.91
55994;BME280;67425;52.126;20.638;2023-04-10T05:25:22;57358.50;;;-144.78;51.29
55994;BME280;67425;52.126;20.638;2023-04-10T05:27:47;57358.50;;;-144.78;51.27
55994;BME280;67425;52.126;20.638;2023-04-10T05:30:13;57325.28;;;-144.78;50.45
55994;BME280;67425;52.126;20.638;2023-04-10T05:32:38;57335.66;;;-144.78;49.63
55994;BME280;67425;52.126;20.638;2023-04-10T05:35:04;57294.13;;;-144.78;49.26
55994;BME280;67425;52.126;20.638;2023-04-10T05:37:29;57316.97;;;-144.78;49.74
55994;BME280;67425;52.126;20.638;2023-04-10T05:39:55;57327.34;;;-144.78;49.79
55994;BME280;67425;52.126;20.638;2023-04-10T05:42:20;57319.06;;;-144.78;50.00
55994;BME280;67425;52.126;20.638;2023-04-10T05:44:45;57306.59;;;-144.78;50.64
55994;BME280;67425;52.126;20.638;2023-04-10T05:47:11;57327.34;;;-144.78;49.85
55994;BME280;67425;52.126;20.638;2023-04-10T05:49:36;57312.81;;;-144.78;50.24
55994;BME280;67425;52.126;20.638;2023-04-10T05:52:01;57310.75;;;-144.78;49.98
55994;BME280;67425;52.126;20.638;2023-04-10T05:54:27;57308.66;;;-144.78;49.42
55994;BME280;67425;52.126;20.638;2023-04-10T05:56:52;57302.44;;;-144.78;49.75
55994;BME280;67425;52.126;20.638;2023-04-10T05:59:18;57289.97;;;-144.78;50.41
55994;BME280;67425;52.126;20.638;2023-04-10T06:01:43;57308.66;;;-144.78;49.92
55994;BME280;67425;52.126;20.638;2023-04-10T06:04:10;57308.66;;;-144.78;51.41
55994;BME280;67425;52.126;20.638;2023-04-10T06:06:35;57314.91;;;-144.78;51.03
55994;BME280;67425;52.126;20.638;2023-04-10T06:09:01;57308.66;;;-144.78;50.69
55994;BME280;67425;52.126;20.638;2023-04-10T06:11:26;57292.06;;;-144.78;50.37
55994;BME280;67425;52.126;20.638;2023-04-10T06:13:51;57279.59;;;-144.78;48.76
55994;BME280;67425;52.126;20.638;2023-04-10T06:16:17;57277.53;;;-144.78;50.28
55994;BME280;67425;52.126;20.638;2023-04-10T06:18:42;57269.22;;;-144.78;49.45
55994;BME280;67425;52.126;20.638;2023-04-10T06:21:08;57285.81;;;-144.78;49.97
55994;BME280;67425;52.126;20.638;2023-04-10T06:23:33;57325.28;;;-144.78;52.60
55994;BME280;67425;52.126;20.638;2023-04-10T06:25:59;57335.66;;;-144.78;54.66
55994;BME280;67425;52.126;20.638;2023-04-10T06:28:25;57316.97;;;-144.78;54.56
55994;BME280;67425;52.126;20.638;2023-04-10T06:30:50;57292.06;;;-144.78;53.50
55994;BME280;67425;52.126;20.638;2023-04-10T06:33:15;57314.91;;;-144.78;53.01
55994;BME280;67425;52.126;20.638;2023-04-10T06:35:41;57273.38;;;-144.78;52.20
55994;BME280;67425;52.126;20.638;2023-04-10T06:38:06;57273.38;;;-144.78;51.35
55994;BME280;67425;52.126;20.638;2023-04-10T06:40:32;57262.97;;;-144.78;51.08
55994;BME280;67425;52.126;20.638;2023-04-10T06:42:59;57254.69;;;-144.78;50.14
55994;BME280;67425;52.126;20.638;2023-04-10T06:45:25;57240.13;;;-144.78;50.22
55994;BME280;67425;52.126;20.638;2023-04-10T06:47:50;57248.44;;;-144.78;49.51
55994;BME280;67425;52.126;20.638;2023-04-10T06:50:16;57269.22;;;-144.78;50.42
55994;BME280;67425;52.126;20.638;2023-04-10T06:52:42;57246.38;;;-144.78;49.08
55994;BME280;67425;52.126;20.638;2023-04-10T06:55:08;57252.59;;;-144.78;49.88
55994;BME280;67425;52.126;20.638;2023-04-10T06:57:33;57223.53;;;-144.78;49.32
55994;BME280;67425;52.126;20.638;2023-04-10T06:59:58;57240.13;;;-144.78;49.61
55994;BME280;67425;52.126;20.638;2023-04-10T07:02:24;57223.53;;;-144.78;48.48
55994;BME280;67425;52.126;20.638;2023-04-10T07:04:49;57238.06;;;-144.78;48.94
55994;BME280;67425;52.126;20.638;2023-04-10T07:07:14;57238.06;;;-144.78;48.09
55994;BME280;67425;52.126;20.638;2023-04-10T07:09:40;57204.84;;;-144.78;47.47
55994;BME280;67425;52.126;20.638;2023-04-10T07:12:05;57227.69;;;-144.78;47.87
55994;BME280;67425;52.126;20.638;2023-04-10T07:14:31;57229.75;;;-144.78;49.47
55994;BME280;67425;52.126;20.638;2023-04-10T07:16:57;57225.59;;;-144.78;49.02
55994;BME280;67425;52.126;20.638;2023-04-10T07:19:22;57262.97;;;-144.78;51.23
55994;BME280;67425;52.126;20.638;2023-04-10T07:21:48;57246.38;;;-144.78;50.00
55994;BME280;67425;52.126;20.638;2023-04-10T07:24:15;57233.91;;;-144.78;50.26
55994;BME280;67425;52.126;20.638;2023-04-10T07:26:41;57229.75;;;-144.78;49.36
55994;BME280;67425;52.126;20.638;2023-04-10T07:29:06;57190.31;;;-144.78;47.75
55994;BME280;67425;52.126;20.638;2023-04-10T07:31:33;57204.84;;;-144.78;48.08
55994;BME280;67425;52.126;20.638;2023-04-10T07:33:58;57217.31;;;-144.78;48.59
55994;BME280;67425;52.126;20.638;2023-04-10T07:36:24;57202.75;;;-144.78;49.11
55994;BME280;67425;52.126;20.638;2023-04-10T07:38:51;57169.53;;;-144.78;46.22
55994;BME280;67425;52.126;20.638;2023-04-10T07:41:16;57225.59;;;-144.78;49.03
55994;BME280;67425;52.126;20.638;2023-04-10T07:43:41;57236.00;;;-144.78;48.99
55994;BME280;67425;52.126;20.638;2023-04-10T07:46:07;57177.84;;;-144.78;47.08
55994;BME280;67425;52.126;20.638;2023-04-10T07:48:32;57165.38;;;-144.78;46.62
55994;BME280;67425;52.126;20.638;2023-04-10T07:50:57;57198.59;;;-144.78;47.53
55994;BME280;67425;52.126;20.638;2023-04-10T07:53:23;57165.38;;;-144.78;46.68
55994;BME280;67425;52.126;20.638;2023-04-10T07:55:48;57161.22;;;-144.78;45.16
55994;BME280;67425;52.126;20.638;2023-04-10T07:58:14;57165.38;;;-144.78;47.04
55994;BME280;67425;52.126;20.638;2023-04-10T08:00:40;57161.22;;;-144.78;45.79
55994;BME280;67425;52.126;20.638;2023-04-10T08:03:06;57175.75;;;-144.78;47.04
55994;BME280;67425;52.126;20.638;2023-04-10T08:05:32;57130.09;;;-144.78;44.13
55994;BME280;67425;52.126;20.638;2023-04-10T08:07:57;57161.22;;;-144.78;44.63
55994;BME280;67425;52.126;20.638;2023-04-10T08:10:23;57206.91;;;-144.78;47.17
55994;BME280;67425;52.126;20.638;2023-04-10T08:12:48;57182.00;;;-144.78;46.53
55994;BME280;67425;52.126;20.638;2023-04-10T08:15:13;57175.75;;;-144.78;45.81
55994;BME280;67425;52.126;20.638;2023-04-10T08:17:39;57169.53;;;-144.78;45.14
55994;BME280;67425;52.126;20.638;2023-04-10T08:20:05;57167.47;;;-144.78;45.07
55994;BME280;67425;52.126;20.638;2023-04-10T08:22:31;57155.00;;;-144.78;44.62
55994;BME280;67425;52.126;20.638;2023-04-10T08:24:56;57117.63;;;-144.78;42.96
55994;BME280;67425;52.126;20.638;2023-04-10T08:27:21;57173.69;;;-144.78;45.00
55994;BME280;67425;52.126;20.638;2023-04-10T08:29:47;57144.63;;;-144.78;45.76
55994;BME280;67425;52.126;20.638;2023-04-10T08:32:12;57163.31;;;-144.78;43.93
55994;BME280;67425;52.126;20.638;2023-04-10T08:34:38;57177.84;;;-144.78;44.41
55994;BME280;67425;52.126;20.638;2023-04-10T08:37:06;57152.94;;;-144.78;44.38
55994;BME280;67425;52.126;20.638;2023-04-10T08:39:37;57144.63;;;-144.78;43.37
55994;BME280;67425;52.126;20.638;2023-04-10T08:42:02;57132.16;;;-144.78;44.72
55994;BME280;67425;52.126;20.638;2023-04-10T08:44:28;57144.63;;;-144.78;44.11
55994;BME280;67425;52.126;20.638;2023-04-10T08:46:57;57136.31;;;-144.78;44.50
55994;BME280;67425;52.126;20.638;2023-04-10T08:51:57;57150.84;;;-144.78;44.63
55994;BME280;67425;52.126;20.638;2023-04-10T08:54:32;57117.63;;;-144.78;43.63
55994;BME280;67425;52.126;20.638;2023-04-10T08:56:58;57163.31;;;-144.78;44.54
55994;BME280;67425;52.126;20.638;2023-04-10T08:59:27;57206.91;;;-144.78;46.74
55994;BME280;67425;52.126;20.638;2023-04-10T09:01:56;57140.47;;;-144.78;45.84
55994;BME280;67425;52.126;20.638;2023-04-10T09:04:23;57163.31;;;-144.78;46.10
55994;BME280;67425;52.126;20.638;2023-04-10T09:06:48;57148.78;;;-144.78;45.50
55994;BME280;67425;52.126;20.638;2023-04-10T09:09:14;57123.84;;;-144.78;43.84
55994;BME280;67425;52.126;20.638;2023-04-10T09:14:24;57140.47;;;-144.78;46.07
55994;BME280;67425;52.126;20.638;2023-04-10T09:16:51;57136.31;;;-144.78;45.93
55994;BME280;67425;52.126;20.638;2023-04-10T09:19:30;57182.00;;;-144.78;45.55
55994;BME280;67425;52.126;20.638;2023-04-10T09:21:56;57148.78;;;-144.78;44.73
55994;BME280;67425;52.126;20.638;2023-04-10T09:24:22;57111.41;;;-144.78;44.02
55994;BME280;67425;52.126;20.638;2023-04-10T09:26:48;57113.47;;;-144.78;43.67
55994;BME280;67425;52.126;20.638;2023-04-10T09:29:13;57119.69;;;-144.78;44.08
55994;BME280;67425;52.126;20.638;2023-04-10T09:31:41;57123.84;;;-144.78;42.71
55994;BME280;67425;52.126;20.638;2023-04-10T09:34:19;57148.78;;;-144.78;45.31
55994;BME280;67425;52.126;20.638;2023-04-10T09:36:52;57142.53;;;-144.78;44.42
55994;BME280;67425;52.126;20.638;2023-04-10T09:39:19;57103.09;;;-144.78;42.95
55994;BME280;67425;52.126;20.638;2023-04-10T09:41:52;57111.41;;;-144.78;43.21
55994;BME280;67425;52.126;20.638;2023-04-10T09:44:31;57107.25;;;-144.78;42.27
55994;BME280;67425;52.126;20.638;2023-04-10T09:47:19;57107.25;;;-144.78;41.88
55994;BME280;67425;52.126;20.638;2023-04-10T09:49:54;57132.16;;;-144.78;42.62
55994;BME280;67425;52.126;20.638;2023-04-10T09:54:50;57096.84;;;-144.78;41.92
55994;BME280;67425;52.126;20.638;2023-04-10T09:57:18;57128.00;;;-144.78;42.71
55994;BME280;67425;52.126;20.638;2023-04-10T09:59:51;57132.16;;;-144.78;43.43
55994;BME280;67425;52.126;20.638;2023-04-10T10:02:18;57159.16;;;-144.78;44.13
55994;BME280;67425;52.126;20.638;2023-04-10T10:04:45;57140.47;;;-144.78;43.51
55994;BME280;67425;52.126;20.638;2023-04-10T10:07:15;57125.94;;;-144.78;43.39
55994;BME280;67425;52.126;20.638;2023-04-10T10:09:41;57130.09;;;-144.78;43.00
55994;BME280;67425;52.126;20.638;2023-04-10T10:12:09;57125.94;;;-144.78;42.01
55994;BME280;67425;52.126;20.638;2023-04-10T10:14:41;57109.31;;;-144.78;41.83
55994;BME280;67425;52.126;20.638;2023-04-10T10:17:10;57107.25;;;-144.78;41.57
55994;BME280;67425;52.126;20.638;2023-04-10T10:19:52;57086.47;;;-144.78;39.38
55994;BME280;67425;52.126;20.638;2023-04-10T10:22:22;57115.53;;;-144.78;41.15
55994;BME280;67425;52.126;20.638;2023-04-10T10:24:49;57101.00;;;-144.78;41.75
55994;BME280;67425;52.126;20.638;2023-04-10T10:27:21;57103.09;;;-144.78;40.88
55994;BME280;67425;52.126;20.638;2023-04-10T10:29:48;57105.16;;;-144.78;41.24
55994;BME280;67425;52.126;20.638;2023-04-10T10:32:16;57098.94;;;-144.78;40.18
55994;BME280;67425;52.126;20.638;2023-04-10T10:34:43;57117.63;;;-144.78;41.28
55994;BME280;67425;52.126;20.638;2023-04-10T10:37:10;57092.69;;;-144.78;40.18
55994;BME280;67425;52.126;20.638;2023-04-10T10:42:37;57080.25;;;-144.78;39.46
55994;BME280;67425;52.126;20.638;2023-04-10T10:47:31;57111.41;;;-144.78;39.98
55994;BME280;67425;52.126;20.638;2023-04-10T10:50:02;57101.00;;;-144.78;39.63
55994;BME280;67425;52.126;20.638;2023-04-10T10:52:44;57082.31;;;-144.78;38.62
55994;BME280;67425;52.126;20.638;2023-04-10T10:57:52;57138.38;;;-144.78;40.02
55994;BME280;67425;52.126;20.638;2023-04-10T11:00:23;57092.69;;;-144.78;39.34
55994;BME280;67425;52.126;20.638;2023-04-10T11:11:04;57067.78;;;-144.78;38.09
55994;BME280;67425;52.126;20.638;2023-04-10T11:13:34;57063.63;;;-144.78;37.09
55994;BME280;67425;52.126;20.638;2023-04-10T11:16:02;57051.16;;;-144.78;37.05
55994;BME280;67425;52.126;20.638;2023-04-10T11:26:53;57061.56;;;-144.78;37.21
55994;BME280;67425;52.126;20.638;2023-04-10T11:31:55;57071.94;;;-144.78;35.45
55994;BME280;67425;52.126;20.638;2023-04-10T11:34:22;57055.31;;;-144.78;35.47
55994;BME280;67425;52.126;20.638;2023-04-10T11:36:47;57061.56;;;-144.78;35.25
55994;BME280;67425;52.126;20.638;2023-04-10T11:39:14;57069.88;;;-144.78;36.16
55994;BME280;67425;52.126;20.638;2023-04-10T11:41:47;57063.63;;;-144.78;36.45
55994;BME280;67425;52.126;20.638;2023-04-10T11:44:15;57094.78;;;-144.78;37.26
55994;BME280;67425;52.126;20.638;2023-04-10T11:46:43;57078.16;;;-144.78;36.79
55994;BME280;67425;52.126;20.638;2023-04-10T11:49:11;57088.56;;;-144.78;37.03
55994;BME280;67425;52.126;20.638;2023-04-10T11:51:37;57013.78;;;-144.78;34.60
55994;BME280;67425;52.126;20.638;2023-04-10T11:54:05;57024.19;;;-144.78;34.75
55994;BME280;67425;52.126;20.638;2023-04-10T11:56:31;57020.03;;;-144.78;34.56
55994;BME280;67425;52.126;20.638;2023-04-10T11:58:56;57036.63;;;-144.78;34.83
55994;BME280;67425;52.126;20.638;2023-04-10T12:01:22;56993.03;;;-144.78;33.12
55994;BME280;67425;52.126;20.638;2023-04-10T12:03:48;57020.03;;;-144.78;33.70
55994;BME280;67425;52.126;20.638;2023-04-10T12:06:14;57040.78;;;-144.78;33.70
55994;BME280;67425;52.126;20.638;2023-04-10T12:08:41;57020.03;;;-144.78;33.04
55994;BME280;67425;52.126;20.638;2023-04-10T12:11:09;57061.56;;;-144.78;33.88
55994;BME280;67425;52.126;20.638;2023-04-10T12:13:35;57092.69;;;-144.78;35.47
55994;BME280;67425;52.126;20.638;2023-04-10T12:16:03;57036.63;;;-144.78;33.76
55994;BME280;67425;52.126;20.638;2023-04-10T12:18:30;56993.03;;;-144.78;32.23
55994;BME280;67425;52.126;20.638;2023-04-10T12:20:56;57024.19;;;-144.78;32.96
55994;BME280;67425;52.126;20.638;2023-04-10T12:23:24;57057.41;;;-144.78;33.61
55994;BME280;67425;52.126;20.638;2023-04-10T12:25:50;57034.56;;;-144.78;33.40
55994;BME280;67425;52.126;20.638;2023-04-10T12:28:19;57042.88;;;-144.78;33.64
55994;BME280;67425;52.126;20.638;2023-04-10T12:30:49;57013.78;;;-144.78;32.32
55994;BME280;67425;52.126;20.638;2023-04-10T12:33:21;57030.41;;;-144.78;32.84
55994;BME280;67425;52.126;20.638;2023-04-10T12:35:47;57040.78;;;-144.78;32.60
55994;BME280;67425;52.126;20.638;2023-04-10T12:38:12;57067.78;;;-144.78;34.35
55994;BME280;67425;52.126;20.638;2023-04-10T12:40:37;57063.63;;;-144.78;33.67
55994;BME280;67425;52.126;20.638;2023-04-10T12:43:04;57007.56;;;-144.78;32.89
55994;BME280;67425;52.126;20.638;2023-04-10T12:45:43;56993.03;;;-144.78;32.45
55994;BME280;67425;52.126;20.638;2023-04-10T12:48:08;57024.19;;;-144.78;31.97
55994;BME280;67425;52.126;20.638;2023-04-10T12:50:45;57053.25;;;-144.78;33.00
55994;BME280;67425;52.126;20.638;2023-04-10T12:53:11;57032.47;;;-144.78;33.03
55994;BME280;67425;52.126;20.638;2023-04-10T12:55:38;56999.25;;;-144.78;32.02
55994;BME280;67425;52.126;20.638;2023-04-10T12:58:23;57051.16;;;-144.78;32.17
55994;BME280;67425;52.126;20.638;2023-04-10T13:01:01;57034.56;;;-144.78;32.98
55994;BME280;67425;52.126;20.638;2023-04-10T13:03:27;57049.09;;;-144.78;34.30
55994;BME280;67425;52.126;20.638;2023-04-10T13:05:53;57001.34;;;-144.78;32.32
55994;BME280;67425;52.126;20.638;2023-04-10T13:08:19;57013.78;;;-144.78;33.14
55994;BME280;67425;52.126;20.638;2023-04-10T13:10:45;57042.88;;;-144.78;33.49
55994;BME280;67425;52.126;20.638;2023-04-10T13:13:11;57003.41;;;-144.78;32.45
55994;BME280;67425;52.126;20.638;2023-04-10T13:15:38;57020.03;;;-144.78;32.04
55994;BME280;67425;52.126;20.638;2023-04-10T13:18:03;57059.47;;;-144.78;32.83
55994;BME280;67425;52.126;20.638;2023-04-10T13:20:31;57038.72;;;-144.78;32.89